sensor_id;sensor_type;location;lat;lon;timestamp;P1;durP1;ratioP1;P2;durP2;ratioP2
73697;SDS011;62004;42.566;23.164;2023-06-19T00:01:39;130.00;;;27.90;;
73697;SDS011;62004;42.566;23.164;2023-06-19T00:04:04;130.33;;;28.17;;
73697;SDS011;62004;42.566;23.164;2023-06-19T00:06:30;129.53;;;27.50;;
73697;SDS011;62004;42.566;23.164;2023-06-19T00:08:55;130.17;;;28.37;;
73697;SDS011;62004;42.566;23.164;2023-06-19T00:11:20;129.93;;;27.90;;
73697;SDS011;62004;42.566;23.164;2023-06-19T00:13:45;129.83;;;27.97;;
73697;SDS011;62004;42.566;23.164;2023-06-19T00:16:10;130.13;;;28.40;;
73697;SDS011;62004;42.566;23.164;2023-06-19T00:18:36;130.43;;;28.30;;
73697;SDS011;62004;42.566;23.164;2023-06-19T00:21:05;129.68;;;27.65;;
73697;SDS011;62004;42.566;23.164;2023-06-19T00:23:31;130.07;;;28.00;;
73697;SDS011;62004;42.566;23.164;2023-06-19T00:25:56;129.63;;;27.63;;
73697;SDS011;62004;42.566;23.164;2023-06-19T00:28:21;129.13;;;27.67;;
73697;SDS011;62004;42.566;23.164;2023-06-19T00:30:47;130.00;;;28.20;;
73697;SDS011;62004;42.566;23.164;2023-06-19T00:33:12;129.15;;;27.58;;
73697;SDS011;62004;42.566;23.164;2023-06-19T00:35:37;128.53;;;27.43;;
73697;SDS011;62004;42.566;23.164;2023-06-19T00:38:03;127.27;;;27.73;;
73697;SDS011;62004;42.566;23.164;2023-06-19T00:40:29;120.13;;;28.15;;
73697;SDS011;62004;42.566;23.164;2023-06-19T00:42:54;131.88;;;27.67;;
73697;SDS011;62004;42.566;23.164;2023-06-19T00:45:20;131.32;;;27.65;;
73697;SDS011;62004;42.566;23.164;2023-06-19T00:47:45;121.63;;;27.85;;
73697;SDS011;62004;42.566;23.164;2023-06-19T00:50:10;121.70;;;28.00;;
73697;SDS011;62004;42.566;23.164;2023-06-19T00:52:36;119.97;;;27.77;;
73697;SDS011;62004;42.566;23.164;2023-06-19T00:55:01;120.13;;;28.20;;
73697;SDS011;62004;42.566;23.164;2023-06-19T00:57:27;120.18;;;28.58;;
73697;SDS011;62004;42.566;23.164;2023-06-19T00:59:52;120.30;;;28.27;;
73697;SDS011;62004;42.566;23.164;2023-06-19T01:02:18;120.07;;;28.23;;
73697;SDS011;62004;42.566;23.164;2023-06-19T01:04:48;119.45;;;28.30;;
73697;SDS011;62004;42.566;23.164;2023-06-19T01:07:14;119.82;;;28.58;;
73697;SDS011;62004;42.566;23.164;2023-06-19T01:09:46;120.40;;;29.48;;
73697;SDS011;62004;42.566;23.164;2023-06-19T01:12:16;119.60;;;28.17;;
73697;SDS011;62004;42.566;23.164;2023-06-19T01:14:46;119.05;;;28.25;;
73697;SDS011;62004;42.566;23.164;2023-06-19T01:17:13;118.25;;;28.33;;
73697;SDS011;62004;42.566;23.164;2023-06-19T01:19:38;118.65;;;28.50;;
73697;SDS011;62004;42.566;23.164;2023-06-19T01:22:04;118.37;;;28.33;;
73697;SDS011;62004;42.566;23.164;2023-06-19T01:24:29;117.75;;;28.48;;
73697;SDS011;62004;42.566;23.164;2023-06-19T01:26:54;117.00;;;28.20;;
73697;SDS011;62004;42.566;23.164;2023-06-19T01:29:21;114.88;;;27.77;;
73697;SDS011;62004;42.566;23.164;2023-06-19T01:34:15;115.22;;;28.33;;
73697;SDS011;62004;42.566;23.164;2023-06-19T01:36:42;114.60;;;28.73;;
73697;SDS011;62004;42.566;23.164;2023-06-19T01:39:08;113.85;;;28.15;;
73697;SDS011;62004;42.566;23.164;2023-06-19T01:41:34;113.57;;;28.08;;
73697;SDS011;62004;42.566;23.164;2023-06-19T01:44:00;113.75;;;28.33;;
73697;SDS011;62004;42.566;23.164;2023-06-19T01:46:25;113.15;;;28.27;;
73697;SDS011;62004;42.566;23.164;2023-06-19T01:48:51;113.10;;;28.15;;
73697;SDS011;62004;42.566;23.164;2023-06-19T01:51:17;112.85;;;28.38;;
73697;SDS011;62004;42.566;23.164;2023-06-19T01:53:43;112.57;;;28.30;;
73697;SDS011;62004;42.566;23.164;2023-06-19T01:56:08;112.40;;;28.03;;
73697;SDS011;62004;42.566;23.164;2023-06-19T01:58:33;112.00;;;27.87;;
73697;SDS011;62004;42.566;23.164;2023-06-19T02:00:58;112.80;;;28.33;;
73697;SDS011;62004;42.566;23.164;2023-06-19T02:03:24;112.53;;;28.30;;
73697;SDS011;62004;42.566;23.164;2023-06-19T02:05:50;112.82;;;29.02;;
73697;SDS011;62004;42.566;23.164;2023-06-19T02:08:15;112.50;;;28.47;;
73697;SDS011;62004;42.566;23.164;2023-06-19T02:10:40;112.70;;;28.80;;
73697;SDS011;62004;42.566;23.164;2023-06-19T02:13:06;119.70;;;27.60;;
73697;SDS011;62004;42.566;23.164;2023-06-19T02:15:31;124.97;;;27.27;;
73697;SDS011;62004;42.566;23.164;2023-06-19T02:17:56;118.15;;;27.85;;
73697;SDS011;62004;42.566;23.164;2023-06-19T02:20:22;111.43;;;28.20;;
73697;SDS011;62004;42.566;23.164;2023-06-19T02:22:49;111.35;;;28.45;;
73697;SDS011;62004;42.566;23.164;2023-06-19T02:25:14;111.50;;;28.85;;
73697;SDS011;62004;42.566;23.164;2023-06-19T02:27:40;110.03;;;28.17;;
73697;SDS011;62004;42.566;23.164;2023-06-19T02:30:05;110.03;;;28.70;;
73697;SDS011;62004;42.566;23.164;2023-06-19T02:32:30;109.95;;;28.67;;
73697;SDS011;62004;42.566;23.164;2023-06-19T02:34:57;109.50;;;28.67;;
73697;SDS011;62004;42.566;23.164;2023-06-19T02:37:22;108.93;;;28.38;;
73697;SDS011;62004;42.566;23.164;2023-06-19T02:39:47;109.03;;;28.37;;
73697;SDS011;62004;42.566;23.164;2023-06-19T02:42:13;110.90;;;28.93;;
73697;SDS011;62004;42.566;23.164;2023-06-19T02:44:39;108.47;;;27.55;;
73697;SDS011;62004;42.566;23.164;2023-06-19T02:47:04;108.73;;;28.30;;
73697;SDS011;62004;42.566;23.164;2023-06-19T02:49:30;108.28;;;28.40;;
73697;SDS011;62004;42.566;23.164;2023-06-19T02:51:55;108.20;;;27.90;;
73697;SDS011;62004;42.566;23.164;2023-06-19T02:54:20;108.50;;;28.50;;
73697;SDS011;62004;42.566;23.164;2023-06-19T02:56:46;107.73;;;27.57;;
73697;SDS011;62004;42.566;23.164;2023-06-19T02:59:11;108.57;;;28.60;;
73697;SDS011;62004;42.566;23.164;2023-06-19T03:01:36;108.10;;;28.57;;
73697;SDS011;62004;42.566;23.164;2023-06-19T03:04:01;107.47;;;27.80;;
73697;SDS011;62004;42.566;23.164;2023-06-19T03:06:26;107.80;;;28.30;;
73697;SDS011;62004;42.566;23.164;2023-06-19T03:08:53;107.80;;;27.80;;
73697;SDS011;62004;42.566;23.164;2023-06-19T03:11:18;117.23;;;28.13;;
73697;SDS011;62004;42.566;23.164;2023-06-19T03:13:47;107.80;;;27.83;;
73697;SDS011;62004;42.566;23.164;2023-06-19T03:16:12;108.30;;;28.17;;
73697;SDS011;62004;42.566;23.164;2023-06-19T03:18:39;107.95;;;27.73;;
73697;SDS011;62004;42.566;23.164;2023-06-19T03:21:04;108.40;;;28.23;;
73697;SDS011;62004;42.566;23.164;2023-06-19T03:23:30;108.03;;;28.00;;
73697;SDS011;62004;42.566;23.164;2023-06-19T03:25:55;108.13;;;28.03;;
73697;SDS011;62004;42.566;23.164;2023-06-19T03:28:20;108.00;;;28.02;;
73697;SDS011;62004;42.566;23.164;2023-06-19T03:30:46;108.33;;;29.13;;
73697;SDS011;62004;42.566;23.164;2023-06-19T03:33:11;108.40;;;28.50;;
73697;SDS011;62004;42.566;23.164;2023-06-19T03:35:36;108.27;;;28.27;;
73697;SDS011;62004;42.566;23.164;2023-06-19T03:38:01;108.53;;;28.50;;
73697;SDS011;62004;42.566;23.164;2023-06-19T03:40:27;108.60;;;28.23;;
73697;SDS011;62004;42.566;23.164;2023-06-19T03:42:52;108.93;;;28.48;;
73697;SDS011;62004;42.566;23.164;2023-06-19T03:45:18;108.87;;;28.63;;
73697;SDS011;62004;42.566;23.164;2023-06-19T03:47:43;109.07;;;28.40;;
73697;SDS011;62004;42.566;23.164;2023-06-19T03:50:08;115.73;;;27.60;;
73697;SDS011;62004;42.566;23.164;2023-06-19T03:52:35;121.38;;;28.35;;
73697;SDS011;62004;42.566;23.164;2023-06-19T03:55:00;122.32;;;28.67;;
73697;SDS011;62004;42.566;23.164;2023-06-19T03:57:25;121.93;;;28.30;;
73697;SDS011;62004;42.566;23.164;2023-06-19T03:59:50;122.70;;;27.87;;
73697;SDS011;62004;42.566;23.164;2023-06-19T04:02:18;123.88;;;28.02;;
73697;SDS011;62004;42.566;23.164;2023-06-19T04:04:43;118.97;;;27.87;;
73697;SDS011;62004;42.566;23.164;2023-06-19T04:07:09;119.90;;;28.63;;
73697;SDS011;62004;42.566;23.164;2023-06-19T04:09:34;119.90;;;28.00;;
73697;SDS011;62004;42.566;23.164;2023-06-19T04:11:59;121.07;;;28.60;;
73697;SDS011;62004;42.566;23.164;2023-06-19T04:14:24;122.30;;;28.43;;
73697;SDS011;62004;42.566;23.164;2023-06-19T04:16:50;133.57;;;39.70;;
73697;SDS011;62004;42.566;23.164;2023-06-19T04:19:15;143.97;;;43.33;;
73697;SDS011;62004;42.566;23.164;2023-06-19T04:21:40;152.63;;;45.70;;
73697;SDS011;62004;42.566;23.164;2023-06-19T04:24:05;160.37;;;46.37;;
73697;SDS011;62004;42.566;23.164;2023-06-19T04:26:34;165.85;;;45.22;;
73697;SDS011;62004;42.566;23.164;2023-06-19T04:28:59;174.13;;;46.17;;
73697;SDS011;62004;42.566;23.164;2023-06-19T04:31:26;173.68;;;45.03;;
73697;SDS011;62004;42.566;23.164;2023-06-19T04:33:51;179.00;;;46.85;;
73697;SDS011;62004;42.566;23.164;2023-06-19T04:36:17;181.00;;;45.88;;
73697;SDS011;62004;42.566;23.164;2023-06-19T04:38:42;188.57;;;47.60;;
73697;SDS011;62004;42.566;23.164;2023-06-19T04:41:09;192.70;;;48.15;;
73697;SDS011;62004;42.566;23.164;2023-06-19T04:43:34;193.07;;;44.77;;
73697;SDS011;62004;42.566;23.164;2023-06-19T04:45:59;197.37;;;45.97;;
73697;SDS011;62004;42.566;23.164;2023-06-19T04:48:24;200.63;;;45.05;;
73697;SDS011;62004;42.566;23.164;2023-06-19T04:50:51;202.18;;;45.20;;
73697;SDS011;62004;42.566;23.164;2023-06-19T04:53:16;191.98;;;43.95;;
73697;SDS011;62004;42.566;23.164;2023-06-19T04:55:42;200.52;;;45.78;;
73697;SDS011;62004;42.566;23.164;2023-06-19T04:58:08;191.68;;;43.10;;
73697;SDS011;62004;42.566;23.164;2023-06-19T05:00:33;195.57;;;44.93;;
73697;SDS011;62004;42.566;23.164;2023-06-19T05:02:59;205.27;;;45.53;;
73697;SDS011;62004;42.566;23.164;2023-06-19T05:05:26;206.77;;;43.90;;
73697;SDS011;62004;42.566;23.164;2023-06-19T05:07:51;199.57;;;43.88;;
73697;SDS011;62004;42.566;23.164;2023-06-19T05:10:17;206.63;;;44.53;;
73697;SDS011;62004;42.566;23.164;2023-06-19T05:12:42;219.18;;;45.58;;
73697;SDS011;62004;42.566;23.164;2023-06-19T05:15:08;213.63;;;45.23;;
73697;SDS011;62004;42.566;23.164;2023-06-19T05:17:33;215.10;;;44.38;;
73697;SDS011;62004;42.566;23.164;2023-06-19T05:19:58;213.50;;;46.30;;
73697;SDS011;62004;42.566;23.164;2023-06-19T05:22:23;218.70;;;46.57;;
73697;SDS011;62004;42.566;23.164;2023-06-19T05:24:49;221.35;;;45.95;;
73697;SDS011;62004;42.566;23.164;2023-06-19T05:27:14;218.05;;;45.67;;
73697;SDS011;62004;42.566;23.164;2023-06-19T05:29:40;215.53;;;47.93;;
73697;SDS011;62004;42.566;23.164;2023-06-19T05:32:05;216.80;;;45.20;;
73697;SDS011;62004;42.566;23.164;2023-06-19T05:34:30;216.88;;;46.35;;
73697;SDS011;62004;42.566;23.164;2023-06-19T05:36:55;217.33;;;44.40;;
73697;SDS011;62004;42.566;23.164;2023-06-19T05:39:21;215.87;;;42.80;;
73697;SDS011;62004;42.566;23.164;2023-06-19T05:41:46;208.75;;;41.28;;
73697;SDS011;62004;42.566;23.164;2023-06-19T05:44:12;208.67;;;41.90;;
73697;SDS011;62004;42.566;23.164;2023-06-19T05:46:41;208.55;;;41.33;;
73697;SDS011;62004;42.566;23.164;2023-06-19T05:49:06;209.40;;;42.00;;
73697;SDS011;62004;42.566;23.164;2023-06-19T05:51:32;204.63;;;39.13;;
73697;SDS011;62004;42.566;23.164;2023-06-19T05:53:57;201.20;;;39.10;;
73697;SDS011;62004;42.566;23.164;2023-06-19T05:56:28;199.57;;;37.05;;
73697;SDS011;62004;42.566;23.164;2023-06-19T05:58:53;201.67;;;37.33;;
73697;SDS011;62004;42.566;23.164;2023-06-19T06:01:18;200.37;;;36.83;;
73697;SDS011;62004;42.566;23.164;2023-06-19T06:03:43;209.17;;;36.50;;
73697;SDS011;62004;42.566;23.164;2023-06-19T06:06:09;205.57;;;35.17;;
73697;SDS011;62004;42.566;23.164;2023-06-19T06:08:34;203.50;;;38.10;;
73697;SDS011;62004;42.566;23.164;2023-06-19T06:10:59;199.93;;;35.37;;
73697;SDS011;62004;42.566;23.164;2023-06-19T06:13:25;195.77;;;34.77;;
73697;SDS011;62004;42.566;23.164;2023-06-19T06:15:50;194.47;;;35.10;;
73697;SDS011;62004;42.566;23.164;2023-06-19T06:18:15;192.63;;;33.90;;
73697;SDS011;62004;42.566;23.164;2023-06-19T06:20:41;193.53;;;33.93;;
73697;SDS011;62004;42.566;23.164;2023-06-19T06:23:06;205.07;;;35.00;;
73697;SDS011;62004;42.566;23.164;2023-06-19T06:25:31;196.33;;;34.57;;
73697;SDS011;62004;42.566;23.164;2023-06-19T06:27:56;200.20;;;33.07;;
73697;SDS011;62004;42.566;23.164;2023-06-19T06:30:22;201.83;;;34.07;;
73697;SDS011;62004;42.566;23.164;2023-06-19T06:32:48;200.80;;;32.60;;
73697;SDS011;62004;42.566;23.164;2023-06-19T06:35:13;200.73;;;33.37;;
73697;SDS011;62004;42.566;23.164;2023-06-19T06:37:39;196.30;;;32.60;;
73697;SDS011;62004;42.566;23.164;2023-06-19T06:40:05;199.02;;;33.03;;
73697;SDS011;62004;42.566;23.164;2023-06-19T06:42:34;200.57;;;32.40;;
73697;SDS011;62004;42.566;23.164;2023-06-19T06:44:59;197.75;;;32.58;;
73697;SDS011;62004;42.566;23.164;2023-06-19T06:47:24;194.60;;;31.90;;
73697;SDS011;62004;42.566;23.164;2023-06-19T06:49:50;195.63;;;30.90;;
73697;SDS011;62004;42.566;23.164;2023-06-19T06:52:15;193.00;;;32.07;;
73697;SDS011;62004;42.566;23.164;2023-06-19T06:54:40;196.70;;;32.30;;
73697;SDS011;62004;42.566;23.164;2023-06-19T06:57:05;196.27;;;31.97;;
73697;SDS011;62004;42.566;23.164;2023-06-19T06:59:31;196.00;;;31.17;;
73697;SDS011;62004;42.566;23.164;2023-06-19T07:01:56;192.27;;;31.23;;
73697;SDS011;62004;42.566;23.164;2023-06-19T07:04:21;188.83;;;31.83;;
73697;SDS011;62004;42.566;23.164;2023-06-19T07:06:47;186.82;;;31.48;;
73697;SDS011;62004;42.566;23.164;2023-06-19T07:09:12;181.20;;;31.10;;
73697;SDS011;62004;42.566;23.164;2023-06-19T07:11:37;173.53;;;31.70;;
73697;SDS011;62004;42.566;23.164;2023-06-19T07:14:03;171.57;;;30.83;;
73697;SDS011;62004;42.566;23.164;2023-06-19T07:16:28;167.47;;;30.30;;
73697;SDS011;62004;42.566;23.164;2023-06-19T07:18:53;165.40;;;31.47;;
73697;SDS011;62004;42.566;23.164;2023-06-19T07:21:19;161.43;;;29.93;;
73697;SDS011;62004;42.566;23.164;2023-06-19T07:23:44;160.68;;;29.95;;
73697;SDS011;62004;42.566;23.164;2023-06-19T07:26:10;161.15;;;30.48;;
73697;SDS011;62004;42.566;23.164;2023-06-19T07:28:35;160.47;;;30.30;;
73697;SDS011;62004;42.566;23.164;2023-06-19T07:31:03;160.45;;;30.42;;
73697;SDS011;62004;42.566;23.164;2023-06-19T07:33:29;160.13;;;30.00;;
73697;SDS011;62004;42.566;23.164;2023-06-19T07:35:54;161.25;;;30.73;;
73697;SDS011;62004;42.566;23.164;2023-06-19T07:38:20;160.88;;;30.33;;
73697;SDS011;62004;42.566;23.164;2023-06-19T07:40:45;161.23;;;30.67;;
73697;SDS011;62004;42.566;23.164;2023-06-19T07:43:10;158.87;;;30.17;;
73697;SDS011;62004;42.566;23.164;2023-06-19T07:45:35;159.07;;;29.93;;
73697;SDS011;62004;42.566;23.164;2023-06-19T07:48:01;159.17;;;30.13;;
73697;SDS011;62004;42.566;23.164;2023-06-19T07:50:26;159.07;;;29.60;;
73697;SDS011;62004;42.566;23.164;2023-06-19T07:52:52;158.27;;;29.60;;
73697;SDS011;62004;42.566;23.164;2023-06-19T07:55:17;156.23;;;29.47;;
73697;SDS011;62004;42.566;23.164;2023-06-19T07:57:42;158.60;;;30.30;;
73697;SDS011;62004;42.566;23.164;2023-06-19T08:00:08;157.90;;;29.70;;
73697;SDS011;62004;42.566;23.164;2023-06-19T08:02:35;156.82;;;30.08;;
73697;SDS011;62004;42.566;23.164;2023-06-19T08:05:01;155.17;;;29.40;;
73697;SDS011;62004;42.566;23.164;2023-06-19T08:07:26;156.03;;;29.73;;
73697;SDS011;62004;42.566;23.164;2023-06-19T08:09:51;155.87;;;29.80;;
73697;SDS011;62004;42.566;23.164;2023-06-19T08:12:16;155.33;;;28.57;;
73697;SDS011;62004;42.566;23.164;2023-06-19T08:14:42;155.87;;;29.37;;
73697;SDS011;62004;42.566;23.164;2023-06-19T08:17:07;156.27;;;30.00;;
73697;SDS011;62004;42.566;23.164;2023-06-19T08:19:32;156.17;;;29.97;;
73697;SDS011;62004;42.566;23.164;2023-06-19T08:21:57;157.95;;;29.77;;
73697;SDS011;62004;42.566;23.164;2023-06-19T08:24:23;155.87;;;28.53;;
73697;SDS011;62004;42.566;23.164;2023-06-19T08:26:48;155.80;;;30.23;;
73697;SDS011;62004;42.566;23.164;2023-06-19T08:29:16;156.60;;;29.52;;
73697;SDS011;62004;42.566;23.164;2023-06-19T08:31:41;155.88;;;31.25;;
73697;SDS011;62004;42.566;23.164;2023-06-19T08:34:06;155.40;;;29.17;;
73697;SDS011;62004;42.566;23.164;2023-06-19T08:36:34;155.10;;;29.42;;
73697;SDS011;62004;42.566;23.164;2023-06-19T08:38:59;154.40;;;29.42;;
73697;SDS011;62004;42.566;23.164;2023-06-19T08:41:25;153.90;;;29.53;;
73697;SDS011;62004;42.566;23.164;2023-06-19T08:43:50;154.20;;;29.37;;
73697;SDS011;62004;42.566;23.164;2023-06-19T08:46:15;154.10;;;29.43;;
73697;SDS011;62004;42.566;23.164;2023-06-19T08:48:42;155.55;;;29.95;;
73697;SDS011;62004;42.566;23.164;2023-06-19T08:51:08;155.00;;;30.00;;
73697;SDS011;62004;42.566;23.164;2023-06-19T08:53:35;154.50;;;29.63;;
73697;SDS011;62004;42.566;23.164;2023-06-19T08:58:28;154.43;;;30.60;;
73697;SDS011;62004;42.566;23.164;2023-06-19T09:00:54;153.40;;;29.37;;
73697;SDS011;62004;42.566;23.164;2023-06-19T09:03:19;153.87;;;30.13;;
73697;SDS011;62004;42.566;23.164;2023-06-19T09:05:45;154.15;;;30.15;;
73697;SDS011;62004;42.566;23.164;2023-06-19T09:10:40;3.58;;;3.28;;
73697;SDS011;62004;42.566;23.164;2023-06-19T09:13:06;3.43;;;3.07;;
73697;SDS011;62004;42.566;23.164;2023-06-19T09:15:36;5.90;;;2.83;;
73697;SDS011;62004;42.566;23.164;2023-06-19T09:18:02;4.95;;;2.55;;
73697;SDS011;62004;42.566;23.164;2023-06-19T09:20:28;4.25;;;3.25;;
73697;SDS011;62004;42.566;23.164;2023-06-19T09:22:56;3.10;;;2.75;;
73697;SDS011;62004;42.566;23.164;2023-06-19T09:25:22;4.95;;;2.70;;
73697;SDS011;62004;42.566;23.164;2023-06-19T09:27:48;3.67;;;3.38;;
73697;SDS011;62004;42.566;23.164;2023-06-19T09:30:17;3.17;;;2.88;;
73697;SDS011;62004;42.566;23.164;2023-06-19T09:32:42;2.92;;;2.72;;
73697;SDS011;62004;42.566;23.164;2023-06-19T09:35:07;9.15;;;2.88;;
73697;SDS011;62004;42.566;23.164;2023-06-19T09:37:33;3.13;;;2.45;;
73697;SDS011;62004;42.566;23.164;2023-06-19T09:40:02;3.73;;;2.83;;
73697;SDS011;62004;42.566;23.164;2023-06-19T09:42:45;4.45;;;2.33;;
73697;SDS011;62004;42.566;23.164;2023-06-19T09:45:12;5.07;;;2.45;;
73697;SDS011;62004;42.566;23.164;2023-06-19T09:47:43;3.90;;;2.70;;
73697;SDS011;62004;42.566;23.164;2023-06-19T09:50:11;2.85;;;2.53;;
73697;SDS011;62004;42.566;23.164;2023-06-19T09:52:36;2.60;;;2.25;;
73697;SDS011;62004;42.566;23.164;2023-06-19T09:55:04;2.55;;;2.30;;
73697;SDS011;62004;42.566;23.164;2023-06-19T09:57:31;2.90;;;2.58;;
73697;SDS011;62004;42.566;23.164;2023-06-19T09:59:57;4.45;;;2.45;;
73697;SDS011;62004;42.566;23.164;2023-06-19T10:02:24;3.25;;;2.40;;
73697;SDS011;62004;42.566;23.164;2023-06-19T10:04:51;3.47;;;2.53;;
73697;SDS011;62004;42.566;23.164;2023-06-19T10:07:21;2.95;;;2.70;;
73697;SDS011;62004;42.566;23.164;2023-06-19T10:09:57;2.42;;;2.22;;
73697;SDS011;62004;42.566;23.164;2023-06-19T10:12:22;4.15;;;2.83;;
73697;SDS011;62004;42.566;23.164;2023-06-19T10:14:47;4.57;;;3.00;;
73697;SDS011;62004;42.566;23.164;2023-06-19T10:17:16;2.60;;;2.40;;
73697;SDS011;62004;42.566;23.164;2023-06-19T10:19:48;2.60;;;2.40;;
73697;SDS011;62004;42.566;23.164;2023-06-19T10:22:18;4.63;;;2.70;;
73697;SDS011;62004;42.566;23.164;2023-06-19T10:24:48;4.97;;;2.75;;
73697;SDS011;62004;42.566;23.164;2023-06-19T10:27:20;3.53;;;3.22;;
73697;SDS011;62004;42.566;23.164;2023-06-19T10:29:51;3.28;;;2.97;;
73697;SDS011;62004;42.566;23.164;2023-06-19T10:32:16;3.08;;;2.78;;
73697;SDS011;62004;42.566;23.164;2023-06-19T10:34:44;2.92;;;2.65;;
73697;SDS011;62004;42.566;23.164;2023-06-19T10:37:10;4.32;;;2.80;;
73697;SDS011;62004;42.566;23.164;2023-06-19T10:39:35;2.40;;;2.20;;
73697;SDS011;62004;42.566;23.164;2023-06-19T10:42:00;4.80;;;2.37;;
73697;SDS011;62004;42.566;23.164;2023-06-19T10:44:25;4.53;;;2.80;;
73697;SDS011;62004;42.566;23.164;2023-06-19T10:46:52;3.03;;;2.50;;
73697;SDS011;62004;42.566;23.164;2023-06-19T10:49:17;6.35;;;2.83;;
73697;SDS011;62004;42.566;23.164;2023-06-19T10:51:42;2.77;;;2.50;;
73697;SDS011;62004;42.566;23.164;2023-06-19T10:54:09;2.40;;;2.20;;
73697;SDS011;62004;42.566;23.164;2023-06-19T10:56:34;2.95;;;2.42;;
73697;SDS011;62004;42.566;23.164;2023-06-19T10:59:04;4.00;;;2.53;;
73697;SDS011;62004;42.566;23.164;2023-06-19T11:01:34;4.15;;;2.65;;
73697;SDS011;62004;42.566;23.164;2023-06-19T11:04:01;3.42;;;2.58;;
73697;SDS011;62004;42.566;23.164;2023-06-19T11:06:27;4.32;;;2.30;;
73697;SDS011;62004;42.566;23.164;2023-06-19T11:08:53;3.10;;;2.45;;
73697;SDS011;62004;42.566;23.164;2023-06-19T11:11:18;4.63;;;3.35;;
73697;SDS011;62004;42.566;23.164;2023-06-19T11:13:45;3.38;;;2.67;;
73697;SDS011;62004;42.566;23.164;2023-06-19T11:16:10;3.10;;;2.63;;
73697;SDS011;62004;42.566;23.164;2023-06-19T11:18:35;3.07;;;2.50;;
73697;SDS011;62004;42.566;23.164;2023-06-19T11:21:01;2.72;;;2.53;;
73697;SDS011;62004;42.566;23.164;2023-06-19T11:23:28;3.38;;;3.08;;
73697;SDS011;62004;42.566;23.164;2023-06-19T11:25:53;3.40;;;3.10;;
73697;SDS011;62004;42.566;23.164;2023-06-19T11:28:19;3.10;;;2.85;;
73697;SDS011;62004;42.566;23.164;2023-06-19T11:30:47;3.47;;;2.83;;
73697;SDS011;62004;42.566;23.164;2023-06-19T11:35:41;6.07;;;3.13;;
73697;SDS011;62004;42.566;23.164;2023-06-19T11:38:15;3.42;;;3.05;;
73697;SDS011;62004;42.566;23.164;2023-06-19T11:43:06;3.53;;;2.57;;
73697;SDS011;62004;42.566;23.164;2023-06-19T11:45:31;2.87;;;2.53;;
73697;SDS011;62004;42.566;23.164;2023-06-19T11:47:56;4.33;;;2.83;;
73697;SDS011;62004;42.566;23.164;2023-06-19T11:50:26;3.27;;;2.93;;
73697;SDS011;62004;42.566;23.164;2023-06-19T11:52:51;6.43;;;3.28;;
73697;SDS011;62004;42.566;23.164;2023-06-19T11:55:17;3.43;;;3.00;;
73697;SDS011;62004;42.566;23.164;2023-06-19T11:57:42;3.63;;;3.33;;
73697;SDS011;62004;42.566;23.164;2023-06-19T12:00:14;5.13;;;3.05;;
73697;SDS011;62004;42.566;23.164;2023-06-19T12:02:40;3.95;;;3.13;;
73697;SDS011;62004;42.566;23.164;2023-06-19T12:05:05;3.53;;;3.23;;
73697;SDS011;62004;42.566;23.164;2023-06-19T12:07:30;2.70;;;2.47;;
73697;SDS011;62004;42.566;23.164;2023-06-19T12:09:56;4.10;;;2.90;;
73697;SDS011;62004;42.566;23.164;2023-06-19T12:12:21;3.08;;;2.78;;
73697;SDS011;62004;42.566;23.164;2023-06-19T12:14:47;2.83;;;2.63;;
73697;SDS011;62004;42.566;23.164;2023-06-19T12:17:12;3.42;;;3.13;;
73697;SDS011;62004;42.566;23.164;2023-06-19T12:19:37;4.63;;;3.33;;
73697;SDS011;62004;42.566;23.164;2023-06-19T12:22:03;7.68;;;2.60;;
73697;SDS011;62004;42.566;23.164;2023-06-19T12:24:29;3.17;;;2.83;;
73697;SDS011;62004;42.566;23.164;2023-06-19T12:26:54;2.70;;;2.50;;
73697;SDS011;62004;42.566;23.164;2023-06-19T12:29:19;3.07;;;2.23;;
73697;SDS011;62004;42.566;23.164;2023-06-19T12:31:45;2.97;;;2.78;;
73697;SDS011;62004;42.566;23.164;2023-06-19T12:34:11;3.30;;;2.83;;
73697;SDS011;62004;42.566;23.164;2023-06-19T12:36:36;3.00;;;2.80;;
73697;SDS011;62004;42.566;23.164;2023-06-19T12:39:01;2.65;;;2.42;;
73697;SDS011;62004;42.566;23.164;2023-06-19T12:43:55;4.65;;;3.13;;
73697;SDS011;62004;42.566;23.164;2023-06-19T12:46:21;3.13;;;2.83;;
73697;SDS011;62004;42.566;23.164;2023-06-19T12:48:46;4.60;;;2.93;;
73697;SDS011;62004;42.566;23.164;2023-06-19T12:51:15;4.03;;;3.42;;
73697;SDS011;62004;42.566;23.164;2023-06-19T12:53:40;3.35;;;3.00;;
73697;SDS011;62004;42.566;23.164;2023-06-19T12:56:06;3.00;;;2.80;;
73697;SDS011;62004;42.566;23.164;2023-06-19T12:58:31;3.03;;;2.73;;
73697;SDS011;62004;42.566;23.164;2023-06-19T13:00:56;3.70;;;3.40;;
73697;SDS011;62004;42.566;23.164;2023-06-19T13:03:21;3.25;;;3.00;;
73697;SDS011;62004;42.566;23.164;2023-06-19T13:05:47;3.08;;;2.78;;
73697;SDS011;62004;42.566;23.164;2023-06-19T13:08:12;2.80;;;2.60;;
73697;SDS011;62004;42.566;23.164;2023-06-19T13:10:37;2.97;;;2.67;;
73697;SDS011;62004;42.566;23.164;2023-06-19T13:13:03;5.40;;;2.60;;
73697;SDS011;62004;42.566;23.164;2023-06-19T13:15:30;3.97;;;3.47;;
73697;SDS011;62004;42.566;23.164;2023-06-19T13:17:55;3.22;;;2.55;;
73697;SDS011;62004;42.566;23.164;2023-06-19T13:20:20;3.42;;;3.13;;
73697;SDS011;62004;42.566;23.164;2023-06-19T13:22:46;4.30;;;2.93;;
73697;SDS011;62004;42.566;23.164;2023-06-19T13:25:11;3.13;;;2.83;;
73697;SDS011;62004;42.566;23.164;2023-06-19T13:27:36;3.23;;;2.93;;
73697;SDS011;62004;42.566;23.164;2023-06-19T13:30:02;3.70;;;3.20;;
73697;SDS011;62004;42.566;23.164;2023-06-19T13:32:27;3.53;;;3.22;;
73697;SDS011;62004;42.566;23.164;2023-06-19T13:34:52;4.70;;;4.00;;
73697;SDS011;62004;42.566;23.164;2023-06-19T13:37:18;5.28;;;3.53;;
73697;SDS011;62004;42.566;23.164;2023-06-19T13:39:43;5.13;;;2.95;;
73697;SDS011;62004;42.566;23.164;2023-06-19T13:42:09;5.38;;;3.45;;
73697;SDS011;62004;42.566;23.164;2023-06-19T13:44:34;3.57;;;3.27;;
73697;SDS011;62004;42.566;23.164;2023-06-19T13:46:59;3.07;;;2.83;;
73697;SDS011;62004;42.566;23.164;2023-06-19T13:49:25;3.35;;;3.05;;
73697;SDS011;62004;42.566;23.164;2023-06-19T13:51:50;3.08;;;2.88;;
73697;SDS011;62004;42.566;23.164;2023-06-19T13:54:16;5.40;;;2.63;;
73697;SDS011;62004;42.566;23.164;2023-06-19T13:56:41;7.47;;;2.90;;
73697;SDS011;62004;42.566;23.164;2023-06-19T13:59:07;3.17;;;2.65;;
73697;SDS011;62004;42.566;23.164;2023-06-19T14:01:33;3.17;;;2.88;;
73697;SDS011;62004;42.566;23.164;2023-06-19T14:03:58;2.83;;;2.63;;
73697;SDS011;62004;42.566;23.164;2023-06-19T14:06:24;4.60;;;2.70;;
73697;SDS011;62004;42.566;23.164;2023-06-19T14:08:49;3.03;;;2.72;;
73697;SDS011;62004;42.566;23.164;2023-06-19T14:11:14;3.20;;;2.47;;
73697;SDS011;62004;42.566;23.164;2023-06-19T14:13:40;3.17;;;2.42;;
73697;SDS011;62004;42.566;23.164;2023-06-19T14:16:05;3.13;;;2.93;;